Terminal Aerodrome Forecast
Issued by NWS Austin/San Antonio, TX

Home | Current Version | Previous Version | Text Only | Print | Product List | Glossary On
Versions: 1 2 3 4 5 6 7 8 9 10 11 12
000
FTUS44 KEWX 301720
TAFAUS
TAF
KAUS 301720Z 3018/3124 20004KT P6SM FEW100 OVC250
     FM302100 17010KT P6SM VCSH BKN100
     FM310300 17006KT P6SM SCT050 BKN150=

USA.gov is the U.S. government's official web portal to all federal, state and local government web resources and services.